Ana Sayfa
METAR-TAF:

METAR-TAF

Havaalanları :

Sakon Nakhon, Tayland

Enlem: 17-11-42N, Boylam: 104-07-08E, yükseklik: 161 m

Güncel hava durumu gözlemi

Rapor saat 01:00 UTC de 39 dakika önce yapıldı.
Sakin rüzgar
Sıcaklık 22°C
Nem 78%
Basınç 1015 hPa
Görüş mesafesi 10 km veya daha fazla
1500 m altında bulut yok ve kümülonimbus yok

METAR: VTUI 160100Z 00000KT CAVOK 22/18 Q1015 NOSIG

Saat: 08:39 (01:39 UTC)

Tahmin

Rapor saat 23:00 UTC de 2 saat ve 39 dakika önce yapıldı.
Ayın 16'si saat 00 UTC'den ayın 16'si saat 24 UTC'ye kadar geçerli Tahmin
Rüzgar doğu/güneydoğudan 4 kt
Görüş mesafesi: 8000 m
4000 ft yükseklikte az bulutlu

TAF: VTUI 152300Z 1600/1624 11004KT 8000 FEW040

4.000'den fazla havaalanı için hava durumu gözlemleri ve tahminleri (METAR ve TAF raporları).

Kullanılabilir istasyonlar harita üzerinde sarı ve kırmızı noktalarla gösterilir.

İstasyonun adını görmek için fareyi noktanın üzerinde gezdirin.

Sonrasında hava gözlem ve tahminlerini görmek için tıklayın.

Haritayı değiştirmek için: yaklaştırmak için siyah artı işaretli yeşil düğmeye ve uzaklaştırmak için de eksi işaretli düğmeye hızla tıklayın; bitişik haritalar için yeşil okları kullanın.


METAR-TAF: